Portada
METAR-TAF:

METAR-TAF

Aeroports :

Amman, Jordània

latitud: 31-59N, longitud: 035-59E, altitud: 767 m

Observació

L'informe es va fer fa 25 minuts, a les 06:00 UTC
Vent calma
Temperatura 27°C
Humitat 37%
Pressió 1016 hPa
Visibilitat: 6000 m

METAR: OJAM 180600Z 00000KT 6000 NSC 27/11 Q1016 NOSIG

Hora: 09:25 (06:25 UTC)

Pronòstic

L'informe es va fer fa 1 hora i 25 minuts, a les 05:00 UTC
Pronòstic vàlid del 18 a les 06 UTC al 19 a les 12 UTC
Vent 3 kt amb direcció variable
Visibilitat: 5000 m
calitja
Temporalment
l' 18 a les 08 UTC al 18 a les 18 UTC
Vent 12 kt del Nord-Oest

TAF: OJAM 180500Z 1806/1912 VRB03KT 5000 HZ NSC TEMPO 1808/1818 32012KT

Observacions i pronòstics meteorològics de més de 4000 aeroports (METAR i TAF).

Les estacions disponibles són els punts grocs i vermells al mapa.

Posi el ratolí al punt desitjat per veure el nom de l'estació.

Feu clic per veure les observacions i els pronòstics meteorològics.

Per canviar el mapa: feu clic els botons verds amb una creu de color negre per apropar; al botó verd amb un guió per allunyar la imatge; o en les fletxes verdes per a mapes adjacents.


METAR-TAF: